Terminal Aerodrome Forecast
Issued by NWS

Current Version | Previous Version | Text Only | Print | Product List | Glossary On
Versions: 1 2 3 4 5 6 7 8 9 10 11 12
000
FTUS44 KEPZ 050500
TAFLRU
TAF
KLRU 050539Z 0506/0606 27007KT P6SM VCSH BKN100
     FM051600 25012KT P6SM FEW120 SCT250
     FM052000 25016G28KT P6SM SCT120 SCT250
     FM060300 26008KT P6SM FEW250=

USA.gov is the U.S. government's official web portal to all federal, state and local government web resources and services.